.
WxDataArchive / Data Records for 2014-03-17
2014-03-16 March 2014 2014-03-18

Data Records for Monday, 17 March 2014

Time	Temp	Chill	HIndex	Humid	Dewpt	 Wind 	HiWind	WindDir	Rain 	Barom
-----	----	-----	------	-----	-----	------	------	-------	-----	-----
00:00	16.7	16.7	16.7	69	8.3	1	5	112	0.00	30.179 
00:05	16.7	16.7	16.7	69	8.3	2	9	90	0.00	30.179 
00:10	16.5	16.5	16.5	69	8.1	2	7	112	0.00	30.179 
00:15	16.5	16.5	16.5	69	8.1	1	6	90	0.00	30.176 
00:20	16.5	16.5	16.5	69	8.1	1	6	90	0.00	30.176 
00:25	16.5	16.5	16.5	69	8.1	3	9	90	0.00	30.176 
00:30	16.4	16.4	16.4	69	8.0	2	10	90	0.00	30.157 
00:35	16.4	16.4	16.4	69	8.0	2	5	112	0.00	30.157 
00:40	16.2	16.2	16.2	70	8.2	1	7	112	0.00	30.157 
00:45	16.1	16.1	16.1	70	8.1	2	6	112	0.00	30.149 
00:50	16.1	16.1	16.1	70	8.1	1	5	45	0.00	30.149 
00:55	15.9	15.9	15.9	70	7.9	2	7	112	0.00	30.149 
01:00	15.9	15.9	15.9	70	7.9	1	5	112	0.00	30.146 
01:05	15.7	15.7	15.7	70	7.7	1	7	112	0.00	30.146 
01:10	15.6	15.6	15.6	70	7.6	2	11	112	0.00	30.146 
01:15	15.6	15.6	15.6	71	7.9	1	4	112	0.00	30.141 
01:20	15.6	15.6	15.6	71	7.9	1	4	112	0.00	30.141 
01:25	15.4	15.4	15.4	71	7.7	1	6	112	0.00	30.141 
01:30	15.2	15.2	15.2	71	7.5	1	6	90	0.00	30.138 
01:35	15.2	15.2	15.2	71	7.5	1	7	45	0.00	30.138 
01:40	15.2	15.2	15.2	70	7.2	2	7	112	0.00	30.138 
01:45	15.1	15.1	15.1	70	7.1	1	9	112	0.00	30.129 
01:50	15.1	15.1	15.1	70	7.1	1	6	112	0.00	30.129 
01:55	14.9	14.9	14.9	70	6.9	1	5	68	0.00	30.129 
02:00	14.8	14.8	14.8	70	6.8	2	6	45	0.00	30.125 
02:05	14.8	14.8	14.8	70	6.8	2	5	90	0.00	30.125 
02:10	14.6	14.6	14.6	70	6.6	1	4	112	0.00	30.125 
02:15	14.4	14.4	14.4	71	6.7	1	6	112	0.00	30.116 
02:20	14.4	14.4	14.4	71	6.7	1	4	90	0.00	30.116 
02:25	14.3	14.3	14.3	70	6.3	1	4	112	0.00	30.116 
02:30	14.3	14.3	14.3	71	6.6	2	6	90	0.00	30.114 
02:35	14.3	14.3	14.3	71	6.6	0	2	90	0.00	30.114 
02:40	14.1	14.1	14.1	71	6.5	1	5	112	0.00	30.114 
02:45	14.1	14.1	14.1	71	6.5	1	6	112	0.00	30.122 
02:50	14.0	14.0	14.0	71	6.4	1	3	0	0.00	30.122 
02:55	14.0	14.0	14.0	71	6.4	1	4	112	0.00	30.122 
03:00	14.0	14.0	14.0	71	6.4	1	3	90	0.00	30.117 
03:05	13.8	13.8	13.8	71	6.2	0	3	45	0.00	30.117 
03:10	13.8	13.8	13.8	71	6.2	0	2	45	0.00	30.117 
03:15	13.6	13.6	13.6	71	6.0	1	6	68	0.00	30.126 
03:20	13.6	13.6	13.6	71	6.0	0	2	68	0.00	30.126 
03:25	13.5	13.5	13.5	71	5.9	1	3	45	0.00	30.126 
03:30	13.3	13.3	13.3	71	5.7	1	4	68	0.00	30.099 
03:35	13.3	13.3	13.3	71	5.7	2	9	90	0.00	30.099 
03:40	13.1	13.1	13.1	71	5.5	1	5	112	0.00	30.099 
03:45	13.1	13.1	13.1	70	5.2	1	3	90	0.00	30.099 
03:50	12.9	12.9	12.9	71	5.3	1	4	90	0.00	30.099 
03:55	12.9	12.9	12.9	70	5.0	1	7	90	0.00	30.099 
04:00	12.8	12.8	12.8	70	4.9	1	5	90	0.00	30.089 
04:05	12.8	12.8	12.8	70	4.9	1	4	112	0.00	30.089 
04:10	12.8	12.8	12.8	70	4.9	1	5	68	0.00	30.089 
04:15	12.6	12.6	12.6	71	5.0	0	3	68	0.00	30.089 
04:20	12.6	12.6	12.6	71	5.0	1	4	112	0.00	30.089 
04:25	12.4	12.4	12.4	71	4.8	1	4	0	0.00	30.089 
04:30	12.4	12.4	12.4	71	4.8	2	9	112	0.00	30.087 
04:35	12.4	12.4	12.4	71	4.8	2	6	90	0.00	30.087 
04:40	12.3	12.3	12.3	71	4.7	1	5	90	0.00	30.087 
04:45	12.3	12.3	12.3	71	4.7	2	6	90	0.00	30.087 
04:50	12.1	12.1	12.1	71	4.5	2	6	112	0.00	30.087 
04:55	12.1	12.1	12.1	71	4.5	1	6	68	0.00	30.087 
05:00	12.1	12.1	12.1	71	4.5	1	5	112	0.00	30.082 
05:05	12.1	12.1	12.1	71	4.5	1	4	45	0.00	30.082 
05:10	12.1	12.1	12.1	71	4.5	2	9	90	0.00	30.082 
05:15	11.9	11.9	11.9	71	4.3	2	6	90	0.00	30.081 
05:20	11.9	11.9	11.9	71	4.3	1	5	112	0.00	30.081 
05:25	11.9	11.9	11.9	72	4.6	1	5	112	0.00	30.081 
05:30	11.7	11.7	11.7	72	4.4	2	11	112	0.00	30.070 
05:35	11.7	11.7	11.7	72	4.4	3	9	90	0.00	30.070 
05:40	11.6	4.5	11.6	72	4.4	4	7	90	0.00	30.070 
05:45	11.6	11.6	11.6	73	4.7	3	10	112	0.00	30.063 
05:50	11.4	11.4	11.4	73	4.5	2	12	90	0.00	30.063 
05:55	11.4	11.4	11.4	73	4.5	2	6	112	0.00	30.063 
06:00	11.4	11.4	11.4	73	4.5	2	5	90	0.00	30.067 
06:05	11.4	11.4	11.4	74	4.8	2	6	112	0.00	30.067 
06:10	11.4	11.4	11.4	74	4.8	0	4	135	0.00	30.067 
06:15	11.2	11.2	11.2	74	4.6	1	6	112	0.00	30.069 
06:20	11.2	11.2	11.2	74	4.6	0	3	90	0.00	30.069 
06:25	11.2	11.2	11.2	75	4.9	1	4	90	0.00	30.069 
06:30	11.1	11.1	11.1	75	4.8	1	5	90	0.00	30.070 
06:35	11.1	11.1	11.1	75	4.8	1	5	112	0.00	30.070 
06:40	11.1	11.1	11.1	75	4.8	1	6	45	0.00	30.070 
06:45	11.1	11.1	11.1	75	4.8	1	5	90	0.00	30.068 
06:50	11.1	11.1	11.1	76	5.0	1	5	112	0.00	30.068 
06:55	11.1	11.1	11.1	76	5.0	1	3	90	0.00	30.068 
07:00	11.1	11.1	11.1	76	5.0	1	5	112	0.00	30.067 
07:05	10.9	10.9	10.9	76	4.8	1	4	90	0.00	30.067 
07:10	10.9	10.9	10.9	76	4.8	1	5	112	0.00	30.067 
07:15	10.9	10.9	10.9	76	4.8	1	4	68	0.00	30.060 
07:20	10.9	10.9	10.9	77	5.1	1	7	112	0.00	30.060 
07:25	10.9	10.9	10.9	77	5.1	2	9	90	0.00	30.060 
07:30	10.7	10.7	10.7	77	4.9	1	6	112	0.00	30.063 
07:35	10.7	10.7	10.7	77	4.9	1	4	112	0.00	30.063 
07:40	10.7	10.7	10.7	77	4.9	1	4	90	0.00	30.063 
07:45	10.7	10.7	10.7	77	4.9	1	5	90	0.00	30.056 
07:50	10.7	10.7	10.7	77	4.9	1	4	112	0.00	30.056 
07:55	10.7	10.7	10.7	77	4.9	2	7	112	0.00	30.056 
08:00	10.5	10.5	10.5	77	4.7	1	6	90	0.00	30.056 
08:05	10.7	10.7	10.7	78	5.2	1	5	112	0.00	30.056 
08:10	10.7	10.7	10.7	78	5.2	1	5	112	0.00	30.056 
08:15	10.9	10.9	10.9	78	5.4	2	7	90	0.00	30.059 
08:20	11.1	11.1	11.1	78	5.6	2	11	112	0.00	30.059 
08:25	11.2	11.2	11.2	78	5.7	2	6	112	0.00	30.059 
08:30	11.6	11.6	11.6	77	5.8	3	10	90	0.00	30.057 
08:35	11.9	11.9	11.9	77	6.1	2	9	90	0.00	30.057 
08:40	12.3	12.3	12.3	77	6.5	3	10	112	0.00	30.057 
08:45	12.6	12.6	12.6	77	6.8	1	5	112	0.00	30.054 
08:50	12.8	12.8	12.8	76	6.7	3	5	90	0.00	30.054 
08:55	13.1	13.1	13.1	76	7.0	3	12	90	0.00	30.054 
09:00	13.5	6.7	13.5	76	7.4	4	7	90	0.00	30.050 
09:05	13.5	6.7	13.5	76	7.4	4	11	90	0.00	30.050 
09:10	13.6	5.5	13.6	76	7.5	5	12	112	0.00	30.050 
09:15	14.0	14.0	14.0	77	8.1	3	10	90	0.00	30.053 
09:20	14.4	6.4	14.4	76	8.2	5	12	90	0.00	30.053 
09:25	14.9	8.3	14.9	75	8.4	4	10	90	0.00	30.053 
09:30	15.4	15.4	15.4	74	8.6	3	10	112	0.00	30.051 
09:35	15.9	9.5	15.9	73	8.8	4	10	112	0.00	30.051 
09:40	16.2	16.2	16.2	73	9.1	3	11	90	0.00	30.051 
09:45	16.4	10.1	16.4	72	9.0	4	10	112	0.00	30.052 
09:50	16.7	9.1	16.7	71	9.0	5	12	112	0.00	30.052 
09:55	16.9	9.3	16.9	69	8.5	5	10	90	0.00	30.052 
10:00	17.2	8.6	17.2	68	8.5	6	12	112	0.00	30.049 
10:05	17.3	7.8	17.3	67	8.3	7	13	90	0.00	30.049 
10:10	18.0	10.6	18.0	66	8.6	5	13	90	0.00	30.049 
10:15	18.3	9.9	18.3	65	8.5	6	10	90	0.00	30.044 
10:20	18.3	9.0	18.3	63	7.8	7	13	90	0.00	30.044 
10:25	18.6	10.3	18.6	64	8.5	6	13	90	0.00	30.044 
10:30	19.2	13.3	19.2	64	9.0	4	10	112	0.00	30.037 
10:35	19.9	11.8	19.9	62	9.0	6	11	90	0.00	30.037 
10:40	20.0	11.9	20.0	62	9.1	6	12	90	0.00	30.037 
10:45	20.8	20.8	20.8	62	9.9	3	7	90	0.00	30.033 
10:50	21.4	15.8	21.4	61	10.1	4	12	90	0.00	30.033 
10:55	21.8	15.1	21.8	58	9.3	5	11	90	0.00	30.033 
11:00	21.4	13.6	21.4	58	8.9	6	11	90	0.00	30.030 
11:05	21.9	15.2	21.9	59	9.8	5	10	112	0.00	30.030 
11:10	22.7	17.3	22.7	57	9.8	4	15	90	0.00	30.030 
11:15	22.5	14.9	22.5	58	10.0	6	13	90	0.00	30.022 
11:20	22.9	16.4	22.9	57	10.0	5	12	90	0.00	30.022 
11:25	23.2	15.8	23.2	57	10.3	6	13	112	0.00	30.022 
11:30	23.6	16.2	23.6	56	10.2	6	11	112	0.00	30.027 
11:35	23.6	15.4	23.6	56	10.2	7	12	112	0.00	30.027 
11:40	23.5	16.1	23.5	55	9.7	6	12	90	0.00	30.027 
11:45	23.9	16.6	23.9	55	10.1	6	12	90	0.00	30.023 
11:50	24.2	16.9	24.2	56	10.8	6	11	90	0.00	30.023 
11:55	24.4	17.2	24.4	56	11.0	6	11	90	0.00	30.023 
12:00	24.8	24.8	24.8	56	11.4	3	9	112	0.00	30.027 
12:05	25.4	19.3	25.4	56	11.9	5	12	112	0.00	30.027 
12:10	25.4	18.4	25.4	54	11.1	6	12	90	0.00	30.027 
12:15	25.4	19.3	25.4	56	11.9	5	12	90	0.00	30.029 
12:20	25.7	19.7	25.7	56	12.2	5	11	90	0.00	30.029 
12:25	25.8	19.8	25.8	56	12.3	5	9	90	0.00	30.029 
12:30	25.8	18.8	25.8	56	12.3	6	13	90	0.00	30.016 
12:35	26.1	21.3	26.1	56	12.6	4	10	112	0.00	30.016 
12:40	26.4	20.5	26.4	58	13.7	5	10	90	0.00	30.016 
12:45	26.4	20.5	26.4	56	12.9	5	12	90	0.00	30.013 
12:50	26.7	22.0	26.7	56	13.1	4	10	90	0.00	30.013 
12:55	27.0	22.3	27.0	56	13.4	4	10	112	0.00	30.013 
13:00	26.9	20.2	26.9	55	12.9	6	13	90	0.00	30.002 
13:05	27.2	22.5	27.2	56	13.6	4	13	90	0.00	30.002 
13:10	27.6	21.9	27.6	54	13.2	5	14	90	0.00	30.002 
13:15	27.5	20.1	27.5	54	13.1	7	13	90	0.00	29.991 
13:20	27.6	21.9	27.6	55	13.6	5	10	112	0.00	29.991 
13:25	28.2	22.6	28.2	56	14.5	5	16	112	0.00	29.991 
13:30	27.8	22.1	27.8	53	12.9	5	11	90	0.00	29.982 
13:35	28.2	22.6	28.2	52	12.9	5	12	90	0.00	29.982 
13:40	28.2	22.6	28.2	56	14.5	5	11	112	0.00	29.982 
13:45	28.7	23.2	28.7	56	15.0	5	11	90	0.00	29.967 
13:50	29.0	24.6	29.0	55	14.9	4	9	112	0.00	29.967 
13:55	28.8	24.4	28.8	53	13.9	4	9	112	0.00	29.967 
14:00	28.8	24.4	28.8	55	14.7	4	12	90	0.00	29.962 
14:05	29.3	25.0	29.3	54	14.7	4	10	112	0.00	29.962 
14:10	29.3	25.0	29.3	54	14.7	4	9	90	0.00	29.962 
14:15	29.5	29.5	29.5	54	14.9	3	10	90	0.00	29.960 
14:20	29.8	29.8	29.8	53	14.8	3	12	90	0.00	29.960 
14:25	29.7	23.5	29.7	52	14.3	6	13	90	0.00	29.960 
14:30	29.8	24.5	29.8	52	14.3	5	10	112	0.00	29.948 
14:35	30.3	30.3	30.3	54	15.7	3	7	90	0.00	29.948 
14:40	30.3	26.1	30.3	54	15.7	4	10	90	0.00	29.948 
14:45	30.6	30.6	30.6	53	15.5	2	6	90	0.00	29.937 
14:50	30.7	30.7	30.7	54	16.0	3	9	112	0.00	29.937 
14:55	30.9	30.9	30.9	51	14.9	3	10	90	0.00	29.937 
15:00	30.7	25.5	30.7	52	15.2	5	11	112	0.00	29.933 
15:05	30.4	26.2	30.4	52	14.9	4	7	112	0.00	29.933 
15:10	30.6	26.5	30.6	51	14.6	4	10	112	0.00	29.933 
15:15	30.6	26.5	30.6	52	15.1	4	11	112	0.00	29.931 
15:20	31.2	31.2	31.2	52	15.6	3	7	90	0.00	29.931 
15:25	31.2	31.2	31.2	53	16.1	3	6	90	0.00	29.931 
15:30	31.2	27.2	31.2	51	15.2	4	7	90	0.00	29.925 
15:35	31.3	31.3	31.3	51	15.3	3	9	90	0.00	29.925 
15:40	31.5	31.5	31.5	50	15.0	3	7	112	0.00	29.925 
15:45	31.8	27.8	31.8	52	16.2	4	10	90	0.00	29.920 
15:50	31.8	31.8	31.8	53	16.6	3	11	90	0.00	29.920 
15:55	31.6	31.6	31.6	55	17.3	3	9	112	0.00	29.920 
16:00	31.5	27.5	31.5	51	15.5	4	10	90	0.00	29.919 
16:05	31.3	31.3	31.3	52	15.7	2	6	90	0.00	29.919 
16:10	31.5	31.5	31.5	54	16.8	3	9	112	0.00	29.919 
16:15	31.8	31.8	31.8	54	17.1	3	11	112	0.00	29.915 
16:20	31.9	28.0	31.9	53	16.7	4	8	90	0.00	29.915 
16:25	32.1	32.1	32.1	55	17.8	3	6	90	0.00	29.915 
16:30	32.1	28.2	32.1	54	17.4	4	9	90	0.00	29.917 
16:35	31.9	28.0	31.9	54	17.2	4	10	90	0.00	29.917 
16:40	31.9	28.0	31.9	54	17.2	4	9	90	0.00	29.917 
16:45	31.9	28.0	31.9	54	17.2	4	12	90	0.00	29.916 
16:50	31.9	28.0	31.9	54	17.2	4	9	68	0.00	29.916 
16:55	32.1	32.1	32.1	56	18.2	3	9	135	0.00	29.916 
17:00	32.2	28.3	32.2	56	18.3	4	9	90	0.00	29.916 
17:05	32.4	32.4	32.4	56	18.5	3	7	90	0.00	29.916 
17:10	32.4	28.5	32.4	58	19.3	4	9	90	0.00	29.916 
17:15	32.2	28.3	32.2	57	18.7	4	8	112	0.00	29.919 
17:20	32.2	32.2	32.2	58	19.1	3	7	90	0.00	29.919 
17:25	32.2	28.3	32.2	58	19.1	4	9	112	0.00	29.919 
17:30	31.9	27.0	31.9	58	18.8	5	8	90	0.00	29.917 
17:35	31.9	31.9	31.9	59	19.2	3	10	90	0.00	29.917 
17:40	31.9	28.0	31.9	59	19.2	4	9	90	0.00	29.917 
17:45	31.9	31.9	31.9	60	19.6	3	9	90	0.00	29.917 
17:50	32.1	32.1	32.1	60	19.8	3	6	112	0.00	29.917 
17:55	32.1	32.1	32.1	60	19.8	3	7	68	0.00	29.917 
18:00	32.1	32.1	32.1	60	19.8	3	7	90	0.00	29.917 
18:05	31.9	28.0	31.9	60	19.6	4	10	90	0.00	29.917 
18:10	31.9	28.0	31.9	61	20.0	4	6	90	0.00	29.917 
18:15	31.9	31.9	31.9	61	20.0	3	9	112	0.00	29.918 
18:20	31.9	31.9	31.9	62	20.4	3	6	90	0.00	29.918 
18:25	31.8	26.8	31.8	62	20.3	5	10	90	0.00	29.918 
18:30	31.8	31.8	31.8	62	20.3	3	7	90	0.00	29.918 
18:35	31.8	31.8	31.8	62	20.3	2	9	68	0.00	29.918 
18:40	31.8	31.8	31.8	62	20.3	3	7	90	0.00	29.918 
18:45	31.8	27.8	31.8	63	20.7	4	9	112	0.00	29.918 
18:50	31.5	27.5	31.5	63	20.4	4	9	90	0.00	29.918 
18:55	31.5	31.5	31.5	64	20.7	3	6	90	0.00	29.918 
19:00	31.3	27.3	31.3	64	20.6	4	7	90	0.00	29.918 
19:05	31.2	31.2	31.2	64	20.5	3	6	112	0.00	29.918 
19:10	31.2	31.2	31.2	64	20.5	3	6	112	0.00	29.918 
19:15	30.9	30.9	30.9	65	20.5	3	6	90	0.00	29.919 
19:20	30.7	30.7	30.7	65	20.3	3	6	90	0.00	29.919 
19:25	30.6	30.6	30.6	65	20.3	3	6	90	0.00	29.919 
19:30	30.6	30.6	30.6	65	20.3	3	7	90	0.00	29.920 
19:35	30.4	30.4	30.4	66	20.4	3	6	90	0.00	29.920 
19:40	30.3	30.3	30.3	67	20.7	2	6	112	0.00	29.920 
19:45	30.1	30.1	30.1	67	20.5	2	6	112	0.00	29.931 
19:50	29.8	29.8	29.8	68	20.5	2	5	112	0.00	29.931 
19:55	29.7	29.7	29.7	68	20.5	2	6	90	0.00	29.931 
20:00	29.7	29.7	29.7	69	20.8	3	5	90	0.00	29.918 
20:05	29.5	29.5	29.5	69	20.6	2	5	90	0.00	29.918 
20:10	29.4	29.4	29.4	70	20.8	3	10	90	0.00	29.918 
20:15	29.3	29.3	29.3	70	20.8	3	5	90	0.00	29.902 
20:20	29.1	29.1	29.1	71	20.9	3	6	68	0.00	29.902 
20:25	29.1	29.1	29.1	71	20.9	2	5	90	0.00	29.902 
20:30	29.0	29.0	29.0	72	21.1	2	5	90	0.00	29.912 
20:35	29.0	29.0	29.0	72	21.1	1	4	90	0.00	29.912 
20:40	28.8	28.8	28.8	72	20.9	2	4	90	0.00	29.912 
20:45	28.7	28.7	28.7	73	21.2	2	5	90	0.00	29.919 
20:50	28.5	28.5	28.5	73	21.0	1	4	90	0.00	29.919 
20:55	28.5	28.5	28.5	73	21.0	2	4	90	0.00	29.919 
21:00	28.4	28.4	28.4	73	20.9	1	3	90	0.00	29.927 
21:05	28.2	28.2	28.2	74	21.0	2	3	90	0.00	29.927 
21:10	28.2	28.2	28.2	74	21.0	2	6	90	0.00	29.927 
21:15	28.1	28.1	28.1	75	21.2	2	4	112	0.00	29.930 
21:20	28.1	28.1	28.1	75	21.2	3	6	90	0.00	29.930 
21:25	27.9	27.9	27.9	75	21.0	3	4	90	0.00	29.930 
21:30	27.8	27.8	27.8	76	21.2	3	5	90	0.00	29.924 
21:35	27.6	27.6	27.6	76	21.0	1	4	68	0.00	29.924 
21:40	27.5	27.5	27.5	77	21.3	2	4	90	0.00	29.924 
21:45	27.5	27.5	27.5	77	21.3	2	6	90	0.00	29.931 
21:50	27.3	27.3	27.3	77	21.1	2	4	90	0.00	29.931 
21:55	27.3	27.3	27.3	77	21.1	2	5	90	0.00	29.931 
22:00	27.2	27.2	27.2	77	21.0	3	7	90	0.00	29.935 
22:05	27.2	27.2	27.2	77	21.0	3	8	90	0.00	29.935 
22:10	27.2	27.2	27.2	77	21.0	2	5	90	0.00	29.935 
22:15	27.0	27.0	27.0	77	20.8	2	4	112	0.00	29.943 
22:20	27.0	27.0	27.0	77	20.8	1	4	112	0.00	29.943 
22:25	26.9	26.9	26.9	77	20.7	2	6	90	0.00	29.943 
22:30	26.9	26.9	26.9	78	21.0	2	4	90	0.00	29.945 
22:35	26.7	26.7	26.7	78	20.8	2	4	90	0.00	29.945 
22:40	26.7	26.7	26.7	78	20.8	2	4	90	0.00	29.945 
22:45	26.6	26.6	26.6	78	20.7	2	5	90	0.00	29.941 
22:50	26.4	26.4	26.4	79	20.8	2	4	90	0.00	29.941 
22:55	26.4	26.4	26.4	78	20.5	3	7	90	0.00	29.941 
23:00	26.4	21.6	26.4	78	20.5	4	9	90	0.00	29.945 
23:05	26.3	26.3	26.3	78	20.4	3	7	90	0.00	29.945 
23:10	26.3	26.3	26.3	78	20.4	3	5	68	0.00	29.945 
23:15	26.3	26.3	26.3	79	20.7	2	7	90	0.00	29.941 
23:20	26.1	26.1	26.1	79	20.5	3	7	90	0.00	29.941 
23:25	26.1	26.1	26.1	79	20.5	2	4	90	0.00	29.941 
23:30	26.0	26.0	26.0	80	20.7	1	5	90	0.00	29.942 
23:35	26.0	26.0	26.0	80	20.7	2	5	90	0.00	29.942 
23:40	25.8	25.8	25.8	80	20.5	2	6	90	0.00	29.942 
23:45	25.8	25.8	25.8	80	20.5	2	5	90	0.00	29.943 
23:50	25.8	25.8	25.8	81	20.8	2	4	90	0.00	29.943 
23:55	25.8	25.8	25.8	81	20.8	2	4	90	0.00	29.943 

CoCoRaHS
IN-AL-39
A2 Web Hosting
Creative Commons License
GoDaddy
search engine by freefind advanced

loaded 2018-11-13 18:09:49 • last modified 2010-11-18 10:43:29
Privacy PolicyDisclaimer
• wx.awcolley.com is powered by PmWiki v.2002016 •
• all content (unless otherwise noted) © 2018 A W Colley